Time;durP1;ratioP1;P1;durP2;ratioP2;P2;SDS_P1;SDS_P2;PMS_P1;PMS_P2;Temp;Humidity;BMP_temperature;BMP_pressure;BME280_temperature;BME280_humidity;BME280_pressure;Samples;Min_cycle;Max_cycle;Signal;HPM_P1;HPM_P2
2022/08/01 00:00:34;;;;;;;0.90;0.50;;;;;;;29.97;37.75;101850.34;5114232;28;20036;-46
2022/08/01 00:03:02;;;;;;;1.40;0.65;;;;;;;29.94;37.41;101855.63;5114488;28;20016;-49
2022/08/01 00:05:31;;;;;;;0.50;0.40;;;;;;;29.96;37.63;101853.88;5114544;28;20023;-48
2022/08/01 00:07:59;;;;;;;1.35;0.88;;;;;;;29.94;37.54;101851.19;5114795;28;20458;-49
2022/08/01 00:10:28;;;;;;;1.38;0.70;;;;;;;29.86;37.84;101835.31;5114367;28;20035;-48
2022/08/01 00:12:56;;;;;;;0.52;0.30;;;;;;;29.88;37.54;101837.94;5114405;28;20566;-48
2022/08/01 00:15:25;;;;;;;0.73;0.55;;;;;;;29.89;37.88;101844.16;5078631;28;20024;-45
2022/08/01 00:17:52;;;;;;;0.70;0.40;;;;;;;29.89;37.66;101844.16;5114549;28;20479;-45
2022/08/01 00:20:21;;;;;;;0.68;0.52;;;;;;;29.85;37.31;101838.84;5113749;28;20367;-47
2022/08/01 00:22:50;;;;;;;0.30;0.30;;;;;;;29.82;37.66;101841.47;5095991;28;20488;-49
2022/08/01 00:25:18;;;;;;;0.95;0.43;;;;;;;29.76;37.69;101830.00;5114269;28;20140;-46
2022/08/01 00:27:46;;;;;;;0.40;0.40;;;;;;;29.84;37.55;101839.72;5115164;28;20030;-48
2022/08/01 00:30:14;;;;;;;0.80;0.50;;;;;;;29.82;37.67;101846.75;5114427;28;20047;-48
2022/08/01 00:32:44;;;;;;;2.60;0.55;;;;;;;29.79;37.49;101843.25;5114225;28;20030;-47
2022/08/01 00:35:13;;;;;;;2.25;0.40;;;;;;;29.85;37.55;101838.84;5114207;28;20064;-49
2022/08/01 00:37:41;;;;;;;0.52;0.30;;;;;;;29.82;37.27;101835.31;5114083;28;20062;-47
2022/08/01 00:40:10;;;;;;;0.45;0.40;;;;;;;29.85;37.25;101835.31;5113258;28;20470;-48
2022/08/01 00:42:39;;;;;;;0.73;0.60;;;;;;;29.85;37.40;101835.31;5114055;28;20034;-46
2022/08/01 00:45:08;;;;;;;1.05;0.50;;;;;;;29.68;37.42;101815.03;5114018;28;20019;-46
2022/08/01 00:47:36;;;;;;;0.68;0.20;;;;;;;29.79;37.48;101830.88;5114211;28;20080;-44
2022/08/01 00:50:05;;;;;;;1.58;0.43;;;;;;;29.79;37.44;101822.09;5113618;28;20064;-47
2022/08/01 00:52:35;;;;;;;1.20;0.60;;;;;;;29.76;37.54;101827.34;5113889;28;20035;-49
2022/08/01 00:55:05;;;;;;;0.60;0.30;;;;;;;29.77;37.57;101822.09;5078936;28;20032;-46
2022/08/01 00:57:34;;;;;;;2.00;0.22;;;;;;;29.74;37.44;101824.72;5114053;28;20121;-46
2022/08/01 01:00:03;;;;;;;0.43;0.43;;;;;;;29.75;37.51;101823.84;5113618;28;20023;-48
2022/08/01 01:02:31;;;;;;;0.43;0.43;;;;;;;29.68;37.40;101825.59;5113665;28;20027;-47
2022/08/01 01:05:00;;;;;;;1.17;0.40;;;;;;;29.73;37.50;101820.31;5113611;28;20420;-56
2022/08/01 01:07:53;;;;;;;0.85;0.50;;;;;;;29.71;37.66;101820.28;5113712;28;20038;-45
2022/08/01 01:10:23;;;;;;;0.70;0.30;;;;;;;29.75;37.59;101818.56;5113613;28;20486;-48
2022/08/01 01:12:53;;;;;;;0.47;0.40;;;;;;;29.64;37.54;101821.19;5113587;28;20081;-49
2022/08/01 01:15:43;;;;;;;0.70;0.35;;;;;;;29.67;37.70;101815.00;5095619;28;20032;-48
2022/08/01 01:18:14;;;;;;;1.65;0.30;;;;;;;29.66;37.71;101807.94;5095348;28;20354;-48
2022/08/01 01:20:47;;;;;;;0.93;0.50;;;;;;;29.63;37.69;101808.84;5113393;28;20097;-47
2022/08/01 01:23:31;;;;;;;1.05;0.50;;;;;;;29.64;37.53;101804.41;5113341;28;20114;-48
2022/08/01 01:26:37;;;;;;;0.47;0.40;;;;;;;29.61;37.70;101800.00;5113723;28;20093;-56
2022/08/01 01:29:26;;;;;;;0.65;0.40;;;;;;;29.60;37.86;101798.25;5105642;28;20436;-46
2022/08/01 01:32:02;;;;;;;0.40;0.40;;;;;;;29.62;37.84;101800.91;5108969;28;20028;-48
2022/08/01 01:34:35;;;;;;;0.50;0.35;;;;;;;29.50;37.71;101780.59;5099375;28;20426;-45
2022/08/01 01:37:07;;;;;;;0.60;0.40;;;;;;;29.64;37.49;101797.38;5098959;28;20462;-48
2022/08/01 01:39:37;;;;;;;0.68;0.40;;;;;;;29.62;37.82;101796.50;5099634;28;20027;-55
2022/08/01 01:42:07;;;;;;;1.63;0.32;;;;;;;29.68;37.81;101793.88;5098863;28;20027;-48
2022/08/01 01:44:37;;;;;;;0.60;0.30;;;;;;;29.65;37.54;101793.84;5117356;28;20024;-46
2022/08/01 01:47:06;;;;;;;1.23;0.40;;;;;;;29.60;37.96;101790.31;5099431;28;20023;-56
2022/08/01 01:49:35;;;;;;;0.30;0.30;;;;;;;29.62;37.70;101785.03;5099427;28;20024;-48
2022/08/01 01:52:04;;;;;;;0.85;0.30;;;;;;;29.54;38.10;101783.25;5117098;28;20184;-47
2022/08/01 01:54:37;;;;;;;1.55;0.40;;;;;;;29.55;37.91;101785.03;5099177;28;20024;-47
2022/08/01 01:57:07;;;;;;;0.50;0.30;;;;;;;29.56;37.69;101783.25;5082799;28;20024;-46
2022/08/01 01:59:37;;;;;;;0.30;0.30;;;;;;;29.49;37.85;101771.78;5098751;28;20053;-48
2022/08/01 02:02:07;;;;;;;0.35;0.32;;;;;;;29.48;37.98;101763.84;5099485;28;20077;-49
2022/08/01 02:04:43;;;;;;;0.63;0.38;;;;;;;29.43;37.84;101765.59;5099010;28;20031;-44
2022/08/01 02:07:15;;;;;;;0.80;0.40;;;;;;;29.47;37.95;101777.94;5099000;28;20030;-55
2022/08/01 02:09:44;;;;;;;0.30;0.30;;;;;;;29.45;37.98;101766.50;5116456;28;20030;-45
2022/08/01 02:12:13;;;;;;;0.77;0.32;;;;;;;29.44;37.84;101765.63;5116390;28;20078;-45
2022/08/01 02:14:44;;;;;;;0.35;0.30;;;;;;;29.42;37.80;101756.81;5116513;28;20552;-48
2022/08/01 02:17:17;;;;;;;0.68;0.30;;;;;;;29.41;37.83;101770.91;5116527;28;20036;-49
2022/08/01 02:19:46;;;;;;;0.43;0.35;;;;;;;29.40;37.75;101775.28;5116234;28;20486;-46
2022/08/01 02:22:32;;;;;;;0.30;0.30;;;;;;;29.41;38.05;101781.47;5098747;28;20118;-56
2022/08/01 02:25:20;;;;;;;0.60;0.40;;;;;;;29.40;37.56;101783.22;5098302;28;20118;-46
2022/08/01 02:28:15;;;;;;;0.57;0.20;;;;;;;29.36;38.07;101785.84;5081212;28;20036;-46
2022/08/01 02:30:47;;;;;;;0.40;0.40;;;;;;;29.32;37.90;101786.69;5116403;28;20020;-48
2022/08/01 02:33:26;;;;;;;0.30;0.20;;;;;;;29.35;37.79;101805.22;5116175;28;20115;-48
2022/08/01 02:35:58;;;;;;;0.40;0.30;;;;;;;29.28;37.92;101800.78;5098093;28;20535;-46
2022/08/01 02:38:29;;;;;;;0.20;0.20;;;;;;;29.33;37.73;101799.00;5115076;28;20059;-44
2022/08/01 02:41:00;;;;;;;0.40;0.40;;;;;;;29.33;37.98;101804.28;5098041;28;20032;-49
2022/08/01 02:43:30;;;;;;;0.65;0.40;;;;;;;29.33;38.17;101799.00;5116388;28;20035;-45
2022/08/01 02:46:02;;;;;;;1.02;0.40;;;;;;;29.29;37.83;101787.56;5098266;28;20035;-48
2022/08/01 02:48:33;;;;;;;0.45;0.40;;;;;;;29.24;38.18;101787.56;5116034;28;20024;-48
2022/08/01 02:51:02;;;;;;;0.80;0.32;;;;;;;29.22;38.09;101791.03;5115626;28;20024;-47
2022/08/01 02:53:36;;;;;;;0.63;0.25;;;;;;;29.21;37.88;101776.97;5097473;28;20036;-56
2022/08/01 02:56:06;;;;;;;0.63;0.30;;;;;;;29.25;37.85;101781.38;5098001;28;20034;-50
2022/08/01 02:58:36;;;;;;;4.68;0.82;;;;;;;29.18;37.89;101782.22;5115947;28;20020;-49
2022/08/01 03:01:07;;;;;;;0.25;0.25;;;;;;;29.17;37.90;101779.59;5097757;28;20028;-48
2022/08/01 03:03:37;;;;;;;0.88;0.40;;;;;;;29.14;38.16;101777.81;5097484;28;20032;-45
2022/08/01 03:06:06;;;;;;;0.80;0.40;;;;;;;29.18;37.84;101784.88;5115766;28;20030;-49
2022/08/01 03:08:36;;;;;;;1.98;0.35;;;;;;;29.22;37.84;101788.41;5097545;28;20020;-45
2022/08/01 03:11:05;;;;;;;1.50;0.40;;;;;;;29.21;37.84;101776.97;5097726;28;20098;-44
2022/08/01 03:13:34;;;;;;;0.95;0.32;;;;;;;29.13;37.95;101768.09;5098060;28;20122;-48
2022/08/01 03:16:04;;;;;;;0.28;0.28;;;;;;;29.07;38.09;101776.03;5097645;28;20386;-55
2022/08/01 03:18:34;;;;;;;0.30;0.30;;;;;;;29.09;38.06;101764.59;5097417;28;20111;-46
2022/08/01 03:21:03;;;;;;;1.08;0.60;;;;;;;29.07;38.23;101770.75;5114958;28;20020;-48
2022/08/01 03:23:32;;;;;;;0.50;0.30;;;;;;;29.06;38.25;101774.25;5097374;28;20020;-47
2022/08/01 03:26:01;;;;;;;0.57;0.30;;;;;;;29.14;38.15;101769.00;5097474;28;20031;-50
2022/08/01 03:28:31;;;;;;;0.30;0.30;;;;;;;29.08;38.18;101762.81;5115132;28;20023;-48
2022/08/01 03:31:01;;;;;;;0.80;0.40;;;;;;;29.00;38.15;101748.72;5115024;28;20023;-56
2022/08/01 03:33:29;;;;;;;0.55;0.40;;;;;;;29.05;38.00;101761.94;5097056;28;20027;-45
2022/08/01 03:35:59;;;;;;;0.25;0.25;;;;;;;28.96;38.26;101763.63;5097290;28;20467;-45
2022/08/01 03:38:29;;;;;;;0.30;0.30;;;;;;;28.95;38.18;101761.91;5096869;28;20077;-45
2022/08/01 03:41:08;;;;;;;0.47;0.35;;;;;;;28.96;38.28;101758.34;5096237;28;20031;-49
2022/08/01 03:43:41;;;;;;;0.30;0.30;;;;;;;28.97;38.43;101753.97;5096986;28;20126;-46
2022/08/01 03:46:14;;;;;;;0.63;0.63;;;;;;;29.00;38.13;101753.09;5096851;28;20101;-47
2022/08/01 03:48:46;;;;;;;0.88;0.30;;;;;;;28.92;38.11;101756.59;5097115;28;20023;-56
2022/08/01 03:51:16;;;;;;;1.05;0.50;;;;;;;28.99;37.89;101762.78;5114610;28;20081;-49
2022/08/01 03:53:46;;;;;;;0.30;0.30;;;;;;;28.98;38.12;101752.19;5114690;28;20468;-48
2022/08/01 03:56:19;;;;;;;0.20;0.20;;;;;;;28.95;37.76;101747.81;5096474;28;20077;-46
2022/08/01 03:58:48;;;;;;;0.40;0.35;;;;;;;28.96;38.11;101749.56;5114273;28;20032;-44
2022/08/01 04:01:17;;;;;;;0.20;0.20;;;;;;;29.00;37.74;101753.09;5096558;28;20442;-47
2022/08/01 04:03:46;;;;;;;0.70;0.30;;;;;;;28.99;37.86;101762.78;5096514;28;20102;-49
2022/08/01 04:06:15;;;;;;;0.10;0.10;;;;;;;29.02;37.99;101769.84;5096254;28;20416;-45
2022/08/01 04:08:55;;;;;;;0.60;0.30;;;;;;;28.99;38.01;101765.44;5114624;28;20386;-48
2022/08/01 04:11:25;;;;;;;0.30;0.20;;;;;;;28.94;37.83;101765.41;5114326;28;20023;-46
2022/08/01 04:13:54;;;;;;;0.52;0.52;;;;;;;28.92;37.79;101767.16;5114387;28;20031;-45
2022/08/01 04:16:23;;;;;;;0.20;0.20;;;;;;;28.85;38.10;101764.50;5114292;28;20424;-48
2022/08/01 04:18:52;;;;;;;0.98;0.40;;;;;;;28.91;37.91;101760.13;5113668;28;20027;-49
2022/08/01 04:21:24;;;;;;;0.20;0.20;;;;;;;28.89;38.15;101763.59;5114296;28;20080;-46
2022/08/01 04:23:54;;;;;;;0.10;0.10;;;;;;;28.85;38.17;101765.34;5076670;28;20402;-45
2022/08/01 04:26:23;;;;;;;0.30;0.20;;;;;;;28.72;38.21;101735.31;5096469;28;20398;-45
2022/08/01 04:28:52;;;;;;;0.20;0.20;;;;;;;28.89;37.88;101767.16;5114139;28;20413;-45
2022/08/01 04:31:21;;;;;;;0.20;0.20;;;;;;;28.85;38.01;101765.34;5096045;28;20389;-56
2022/08/01 04:33:52;;;;;;;0.25;0.25;;;;;;;28.75;38.48;101764.44;5113581;28;20107;-46
2022/08/01 04:36:23;;;;;;;0.40;0.20;;;;;;;28.84;38.11;101779.44;5113518;28;20027;-46
2022/08/01 04:38:56;;;;;;;0.20;0.20;;;;;;;28.81;38.13;101782.06;5096261;28;20031;-45
2022/08/01 04:41:25;;;;;;;0.40;0.20;;;;;;;28.82;38.14;101778.53;5096133;28;20047;-46
2022/08/01 04:43:54;;;;;;;0.88;0.50;;;;;;;28.74;38.37;101775.88;5113655;28;20060;-45
2022/08/01 04:46:24;;;;;;;0.47;0.30;;;;;;;28.74;38.39;101778.50;5095869;28;20085;-48
2022/08/01 04:48:53;;;;;;;0.20;0.20;;;;;;;28.76;38.32;101781.16;5096031;28;20437;-46
2022/08/01 04:51:22;;;;;;;0.40;0.30;;;;;;;28.78;38.03;101785.56;5113865;28;20030;-48
2022/08/01 04:53:51;;;;;;;0.35;0.30;;;;;;;28.77;38.07;101780.28;5113834;28;20081;-52
2022/08/01 04:56:21;;;;;;;1.15;0.40;;;;;;;28.84;38.29;101792.63;5113515;28;20077;-55
2022/08/01 04:59:39;;;;;;;0.75;0.32;;;;;;;28.76;38.29;101775.88;5113641;28;20488;-47
2022/08/01 05:01:37;;;;;;;0.30;0.30;;;;;;;28.73;38.19;101774.09;5112966;28;20110;-47
2022/08/01 05:04:05;;;;;;;1.50;0.63;;;;;;;28.78;38.07;101788.22;5113684;28;20023;-56
2022/08/01 05:06:34;;;;;;;0.20;0.20;;;;;;;28.71;38.15;101781.09;5113591;28;20470;-51
2022/08/01 05:09:02;;;;;;;0.73;0.40;;;;;;;28.77;38.04;101781.16;5113186;28;20501;-56
2022/08/01 05:11:31;;;;;;;0.20;0.20;;;;;;;28.74;38.25;101790.84;5112982;28;20023;-49
2022/08/01 05:13:59;;;;;;;0.40;0.30;;;;;;;28.73;38.18;101792.56;5113286;28;20100;-55
2022/08/01 05:16:28;;;;;;;0.50;0.20;;;;;;;28.74;38.31;101801.41;5113419;28;20145;-47
2022/08/01 05:18:57;;;;;;;0.30;0.30;;;;;;;28.75;38.18;101798.75;5113550;28;20475;-47
2022/08/01 05:21:25;;;;;;;0.57;0.35;;;;;;;28.78;38.08;101797.91;5113456;28;20062;-49
2022/08/01 05:23:54;;;;;;;0.95;0.40;;;;;;;28.76;38.06;101807.56;5113193;28;20031;-48
2022/08/01 05:26:23;;;;;;;0.82;0.40;;;;;;;28.73;38.26;101815.44;5113638;28;20024;-56
2022/08/01 05:28:51;;;;;;;0.40;0.30;;;;;;;28.70;38.26;101818.06;5095291;28;20038;-56
2022/08/01 05:31:21;;;;;;;0.98;0.30;;;;;;;28.70;38.17;101812.78;5112284;28;20095;-56
2022/08/01 05:33:49;;;;;;;0.40;0.40;;;;;;;28.65;38.38;101810.09;5113379;28;20019;-53
2022/08/01 05:36:18;;;;;;;0.38;0.38;;;;;;;28.66;38.41;101809.25;5113041;28;20115;-45
2022/08/01 05:38:46;;;;;;;0.35;0.32;;;;;;;28.70;38.16;101807.50;5113047;28;20505;-45
2022/08/01 05:41:15;;;;;;;0.20;0.20;;;;;;;28.66;38.25;101815.38;5113927;28;20030;-56
2022/08/01 05:43:44;;;;;;;0.30;0.30;;;;;;;28.63;38.52;101804.81;5095044;28;20034;-52
2022/08/01 05:46:12;;;;;;;0.52;0.43;;;;;;;28.65;38.40;101813.63;5113163;28;20096;-45
2022/08/01 05:48:41;;;;;;;0.52;0.32;;;;;;;28.68;38.28;101803.94;5113157;28;20031;-48
2022/08/01 05:51:09;;;;;;;0.50;0.40;;;;;;;28.66;38.40;101811.88;5113338;28;20494;-54
2022/08/01 05:53:38;;;;;;;0.63;0.40;;;;;;;28.65;38.22;101810.09;5112766;28;20039;-45
2022/08/01 05:56:06;;;;;;;0.68;0.43;;;;;;;28.65;38.59;101810.97;5113356;28;20030;-46
2022/08/01 05:58:35;;;;;;;0.52;0.40;;;;;;;28.58;38.64;101805.66;5112838;28;20020;-55
2022/08/01 06:01:04;;;;;;;0.20;0.20;;;;;;;28.59;38.49;101824.16;5112678;28;20107;-48
2022/08/01 06:03:33;;;;;;;0.30;0.28;;;;;;;28.62;38.50;101818.91;5112440;28;20055;-56
2022/08/01 06:06:02;;;;;;;0.85;0.30;;;;;;;28.56;38.41;101821.50;5112980;28;20031;-56
2022/08/01 06:08:31;;;;;;;0.30;0.30;;;;;;;28.58;38.60;101825.03;5113489;28;20016;-49
2022/08/01 06:11:00;;;;;;;0.55;0.30;;;;;;;28.60;38.64;101820.66;5112816;28;20386;-51
2022/08/01 06:13:30;;;;;;;1.10;0.47;;;;;;;28.58;38.58;101822.38;5113399;28;20118;-53
2022/08/01 06:15:59;;;;;;;0.73;0.47;;;;;;;28.57;38.48;101823.25;5116798;28;20023;-49
2022/08/01 06:18:28;;;;;;;1.15;0.40;;;;;;;28.53;38.47;101828.50;5098671;28;20028;-54
2022/08/01 06:20:56;;;;;;;0.40;0.30;;;;;;;28.51;38.78;101831.13;5116265;28;20024;-52
2022/08/01 06:23:26;;;;;;;2.15;0.30;;;;;;;28.54;38.61;101817.09;5116747;28;20024;-51
2022/08/01 06:25:55;;;;;;;0.30;0.30;;;;;;;28.50;38.73;101816.16;5116599;28;20123;-45
2022/08/01 06:28:24;;;;;;;0.40;0.38;;;;;;;28.48;38.72;101815.25;5116232;28;20032;-55
2022/08/01 06:30:53;;;;;;;0.50;0.30;;;;;;;28.46;38.80;101809.13;5081140;28;20489;-56
2022/08/01 06:33:21;;;;;;;0.20;0.20;;;;;;;28.49;38.69;101814.38;5115538;28;20065;-48
2022/08/01 06:35:50;;;;;;;0.70;0.40;;;;;;;28.53;38.62;101820.59;5116312;28;20081;-49
2022/08/01 06:38:18;;;;;;;0.90;0.38;;;;;;;28.54;38.52;101820.59;5116499;28;20462;-46
2022/08/01 06:40:47;;;;;;;0.82;0.40;;;;;;;28.45;38.69;101817.91;5115568;28;20028;-55
2022/08/01 06:43:16;;;;;;;0.55;0.40;;;;;;;28.47;38.57;101818.75;5097807;28;20030;-45
2022/08/01 06:45:45;;;;;;;0.75;0.50;;;;;;;28.47;38.77;101824.94;5115893;28;20024;-56
2022/08/01 06:48:14;;;;;;;0.50;0.40;;;;;;;28.51;38.57;101825.84;5116776;28;20027;-51
2022/08/01 06:50:43;;;;;;;0.60;0.50;;;;;;;28.48;38.69;101826.72;5116145;28;20024;-46
2022/08/01 06:53:11;;;;;;;0.60;0.50;;;;;;;28.41;38.60;101818.75;5116087;28;20055;-49
2022/08/01 06:55:40;;;;;;;0.40;0.40;;;;;;;28.38;38.84;101816.06;5097306;28;20027;-45
2022/08/01 06:58:08;;;;;;;0.68;0.68;;;;;;;28.39;38.84;101812.56;5115781;28;20032;-45
2022/08/01 07:00:36;;;;;;;0.40;0.30;;;;;;;28.44;38.81;101827.56;5115718;28;20062;-56
2022/08/01 07:03:04;;;;;;;0.60;0.40;;;;;;;28.50;38.71;101832.00;5097644;28;20458;-56
2022/08/01 07:05:33;;;;;;;0.40;0.40;;;;;;;28.46;38.83;101827.59;5115684;28;20034;-52
2022/08/01 07:08:02;;;;;;;0.60;0.25;;;;;;;28.41;38.85;101826.66;5115542;28;20421;-56
2022/08/01 07:10:30;;;;;;;0.57;0.40;;;;;;;28.48;38.50;101833.72;5115718;28;20023;-56
2022/08/01 07:12:59;;;;;;;0.50;0.50;;;;;;;28.48;38.82;101849.56;5115425;28;20118;-51
2022/08/01 07:15:28;;;;;;;0.57;0.50;;;;;;;28.47;38.58;101835.50;5115910;28;20055;-48
2022/08/01 07:17:58;;;;;;;0.68;0.50;;;;;;;28.44;38.85;101830.19;5115842;28;20019;-48
2022/08/01 07:20:27;;;;;;;1.38;0.60;;;;;;;28.43;38.77;101832.84;5115990;28;20043;-53
2022/08/01 07:22:55;;;;;;;0.57;0.50;;;;;;;28.36;39.02;101842.47;5115503;28;20016;-53
2022/08/01 07:25:24;;;;;;;0.90;0.47;;;;;;;28.36;38.82;101842.47;5114849;28;20035;-44
2022/08/01 07:27:52;;;;;;;0.75;0.52;;;;;;;28.37;39.10;101841.59;5115028;28;20111;-49
2022/08/01 07:30:21;;;;;;;0.88;0.50;;;;;;;28.36;39.02;101834.53;5115324;28;20023;-47
2022/08/01 07:32:50;;;;;;;2.78;0.90;;;;;;;28.29;39.09;101823.06;5114772;28;20413;-46
2022/08/01 07:35:18;;;;;;;0.82;0.73;;;;;;;28.33;39.13;101835.38;5115223;28;20028;-44
2022/08/01 07:37:47;;;;;;;1.40;0.40;;;;;;;28.32;39.14;101843.28;5115088;28;20031;-45
2022/08/01 07:40:16;;;;;;;0.45;0.45;;;;;;;28.36;39.08;101837.19;5114820;28;20027;-45
2022/08/01 07:42:44;;;;;;;0.50;0.50;;;;;;;28.40;39.00;101838.94;5115067;28;20466;-45
2022/08/01 07:45:13;;;;;;;0.63;0.60;;;;;;;28.34;38.97;101820.44;5114689;28;20047;-45
2022/08/01 07:47:42;;;;;;;0.82;0.50;;;;;;;28.42;38.97;101836.34;5114473;28;20024;-45
2022/08/01 07:50:09;;;;;;;0.50;0.40;;;;;;;28.42;38.85;101845.13;5115026;28;20019;-44
2022/08/01 07:52:38;;;;;;;0.52;0.50;;;;;;;28.39;38.92;101849.50;5114694;28;20034;-45
2022/08/01 07:55:07;;;;;;;0.40;0.40;;;;;;;28.35;38.83;101846.84;5114902;28;20032;-44
2022/08/01 07:57:35;;;;;;;0.98;0.55;;;;;;;28.45;38.64;101849.56;5097615;28;20020;-46
2022/08/01 08:00:06;;;;;;;1.52;0.60;;;;;;;28.44;38.88;101840.75;5096508;28;20497;-44
2022/08/01 08:02:34;;;;;;;0.60;0.50;;;;;;;28.45;38.73;101844.28;5115028;28;20046;-45
2022/08/01 08:05:04;;;;;;;0.50;0.32;;;;;;;28.46;38.89;101861.91;5114378;28;20027;-55
2022/08/01 08:07:33;;;;;;;0.38;0.38;;;;;;;28.46;38.70;101868.03;5096276;28;20428;-49
2022/08/01 08:10:02;;;;;;;1.35;0.85;;;;;;;28.45;38.71;101868.91;5114313;28;20034;-48
2022/08/01 08:12:30;;;;;;;0.60;0.50;;;;;;;28.49;38.64;101876.00;5114419;28;20544;-50
2022/08/01 08:15:00;;;;;;;0.45;0.45;;;;;;;28.47;38.85;101868.91;5114601;28;20086;-44
2022/08/01 08:17:29;;;;;;;0.50;0.50;;;;;;;28.44;38.76;101861.88;5114181;28;20097;-46
2022/08/01 08:19:58;;;;;;;0.55;0.50;;;;;;;28.43;38.96;101849.53;5113961;28;20019;-49
2022/08/01 08:22:27;;;;;;;0.40;0.40;;;;;;;28.46;38.96;101851.34;5095868;28;20047;-48
2022/08/01 08:24:55;;;;;;;0.60;0.57;;;;;;;28.44;38.79;101851.31;5113811;28;20050;-45
2022/08/01 08:27:24;;;;;;;0.75;0.50;;;;;;;28.44;38.90;101847.81;5114107;28;20466;-46
2022/08/01 08:29:52;;;;;;;0.47;0.47;;;;;;;28.43;39.06;101854.81;5095843;28;20051;-49
2022/08/01 08:32:20;;;;;;;0.40;0.40;;;;;;;28.37;38.87;101844.22;5078713;28;20028;-49
2022/08/01 08:34:49;;;;;;;0.30;0.30;;;;;;;28.50;38.83;101861.94;5095922;28;20023;-45
2022/08/01 08:37:18;;;;;;;0.65;0.52;;;;;;;28.47;38.78;101861.91;5113870;28;20038;-49
2022/08/01 08:39:47;;;;;;;0.40;0.40;;;;;;;28.48;38.87;101853.09;5113640;28;20028;-49
2022/08/01 08:42:15;;;;;;;0.77;0.55;;;;;;;28.50;38.67;101859.28;5113789;28;20053;-50
2022/08/01 08:44:44;;;;;;;1.13;0.47;;;;;;;28.50;38.78;101861.03;5114144;28;20030;-44
2022/08/01 08:47:14;;;;;;;0.70;0.30;;;;;;;28.57;38.82;101856.66;5113970;28;20020;-47
2022/08/01 08:49:45;;;;;;;0.50;0.50;;;;;;;28.55;38.96;101861.94;5096152;28;20020;-45
2022/08/01 08:52:13;;;;;;;0.47;0.40;;;;;;;28.49;38.72;101852.25;5113639;28;20019;-55
2022/08/01 08:54:43;;;;;;;0.40;0.40;;;;;;;28.50;38.79;101854.00;5113782;28;20535;-46
2022/08/01 08:57:12;;;;;;;0.60;0.50;;;;;;;28.49;38.72;101848.69;5095589;28;20035;-47
2022/08/01 08:59:41;;;;;;;0.50;0.50;;;;;;;28.49;39.14;101848.69;5095469;28;20492;-45
2022/08/01 09:02:10;;;;;;;0.57;0.40;;;;;;;28.51;39.02;101857.50;5114073;28;20531;-53
2022/08/01 09:04:40;;;;;;;0.75;0.43;;;;;;;28.57;38.90;101862.84;5095469;28;20024;-47
2022/08/01 09:07:10;;;;;;;0.52;0.40;;;;;;;28.54;38.98;101864.59;5113786;28;20034;-47
2022/08/01 09:09:38;;;;;;;0.85;0.35;;;;;;;28.61;38.91;101862.00;5113672;28;20035;-44
2022/08/01 09:12:07;;;;;;;0.60;0.50;;;;;;;28.54;38.90;101860.19;5113665;28;20027;-48
2022/08/01 09:14:35;;;;;;;1.55;0.52;;;;;;;28.54;39.09;101864.59;5095157;28;20032;-48
2022/08/01 09:17:12;;;;;;;1.08;0.45;;;;;;;28.53;38.84;101854.91;5095484;28;20107;-48
2022/08/01 09:19:43;;;;;;;1.17;0.57;;;;;;;28.58;38.90;101854.06;5095401;28;20140;-45
2022/08/01 09:22:14;;;;;;;1.48;0.60;;;;;;;28.50;38.72;101840.81;5113623;28;20069;-47
2022/08/01 09:24:43;;;;;;;0.60;0.57;;;;;;;28.57;39.13;101865.50;5113061;28;20490;-47
2022/08/01 09:27:25;;;;;;;1.17;0.50;;;;;;;28.52;39.19;101867.19;5113119;28;20058;-49
2022/08/01 09:29:54;;;;;;;0.98;0.60;;;;;;;28.57;39.17;101869.88;5113541;28;20551;-46
2022/08/01 09:32:23;;;;;;;1.13;0.68;;;;;;;28.64;39.23;101872.56;5113277;28;20108;-45
2022/08/01 09:34:52;;;;;;;1.25;0.70;;;;;;;28.64;39.21;101869.06;5096030;28;20102;-48
2022/08/01 09:37:33;;;;;;;2.08;0.70;;;;;;;28.56;38.92;101869.00;5113677;28;20030;-48
2022/08/01 09:40:03;;;;;;;1.20;0.65;;;;;;;28.58;39.09;101855.81;5113410;28;20027;-48
2022/08/01 09:42:32;;;;;;;0.70;0.70;;;;;;;28.57;39.07;101860.22;5113300;28;20031;-46
2022/08/01 09:45:01;;;;;;;0.82;0.80;;;;;;;28.70;39.17;101869.13;5113145;28;20039;-45
2022/08/01 09:47:41;;;;;;;1.02;0.70;;;;;;;28.58;39.26;101859.34;5114714;28;20024;-45
2022/08/01 09:50:09;;;;;;;0.50;0.50;;;;;;;28.62;39.15;101866.41;5117519;28;20107;-48
2022/08/01 09:52:38;;;;;;;0.63;0.40;;;;;;;28.60;39.16;101868.16;5117164;28;20032;-49
2022/08/01 09:55:07;;;;;;;0.88;0.68;;;;;;;28.61;39.41;101875.22;5098868;28;20035;-50
2022/08/01 09:57:36;;;;;;;1.10;0.60;;;;;;;28.59;39.48;101862.84;5098977;28;20466;-47
2022/08/01 10:00:05;;;;;;;1.08;0.70;;;;;;;28.63;39.28;101869.94;5116898;28;20023;-44
2022/08/01 10:02:40;;;;;;;0.95;0.70;;;;;;;28.65;39.39;101865.56;5117358;28;20027;-56
2022/08/01 10:05:11;;;;;;;0.43;0.43;;;;;;;28.62;39.33;101869.06;5117163;28;20389;-47
2022/08/01 10:08:00;;;;;;;0.93;0.60;;;;;;;28.62;39.35;101866.41;5116985;28;20023;-46
2022/08/01 10:10:28;;;;;;;0.75;0.40;;;;;;;28.69;39.16;101863.81;5116534;28;20492;-50
2022/08/01 10:12:59;;;;;;;0.45;0.45;;;;;;;28.76;38.87;101858.63;5116596;28;20028;-45
2022/08/01 10:15:29;;;;;;;1.92;0.60;;;;;;;28.77;38.73;101848.94;5116025;28;20057;-47
2022/08/01 10:17:59;;;;;;;1.08;0.57;;;;;;;28.81;39.01;101858.63;5116638;28;20390;-46
2022/08/01 10:20:30;;;;;;;1.55;0.70;;;;;;;28.78;39.38;101858.63;5116305;28;20023;-44
2022/08/01 10:23:02;;;;;;;1.55;0.75;;;;;;;28.82;39.01;101855.13;5116602;28;20048;-45
2022/08/01 10:25:36;;;;;;;1.00;0.65;;;;;;;28.82;39.29;101862.19;5116469;28;20036;-46
2022/08/01 10:28:11;;;;;;;0.80;0.80;;;;;;;28.71;39.62;101855.00;5116866;28;20421;-45
2022/08/01 10:30:40;;;;;;;1.58;0.90;;;;;;;28.79;39.61;101863.91;5116182;28;20600;-50
2022/08/01 10:33:09;;;;;;;2.00;0.63;;;;;;;28.77;39.43;101862.16;5098669;28;20474;-50
2022/08/01 10:35:39;;;;;;;1.17;0.90;;;;;;;28.78;39.35;101858.63;5116167;28;20028;-48
2022/08/01 10:38:08;;;;;;;0.68;0.52;;;;;;;28.71;39.64;101855.00;5116820;28;20467;-56
2022/08/01 10:40:37;;;;;;;2.65;1.13;;;;;;;28.71;39.48;101851.50;5098643;28;20038;-47
2022/08/01 10:43:05;;;;;;;1.50;0.68;;;;;;;28.70;39.47;101855.91;5097964;28;20020;-46
2022/08/01 10:45:34;;;;;;;1.17;0.95;;;;;;;28.74;39.30;101852.44;5116403;28;20026;-47
2022/08/01 10:48:30;;;;;;;1.23;0.55;;;;;;;28.77;39.75;101857.75;5116236;28;20471;-45
2022/08/01 10:51:01;;;;;;;1.48;0.70;;;;;;;28.74;39.75;101849.78;5097724;28;20061;-49
2022/08/01 10:53:30;;;;;;;0.60;0.60;;;;;;;28.75;39.49;101855.97;5097824;28;20471;-49
2022/08/01 10:55:59;;;;;;;5.40;1.73;;;;;;;28.83;39.54;101850.75;5115764;28;20067;-47
2022/08/01 10:58:32;;;;;;;14.10;5.13;;;;;;;28.91;39.74;101855.19;5115762;28;20035;-45
2022/08/01 11:01:20;;;;;;;18.70;5.72;;;;;;;28.90;40.15;101857.81;5115430;28;20030;-47
2022/08/01 11:04:13;;;;;;;5.72;2.10;;;;;;;28.93;40.61;101853.44;5107438;28;20402;-44
2022/08/01 11:06:44;;;;;;;7.35;2.53;;;;;;;29.00;40.46;101859.66;5107084;28;20031;-45
2022/08/01 11:09:14;;;;;;;3.05;1.75;;;;;;;29.10;40.19;101855.31;5116297;28;20050;-47
2022/08/01 11:12:03;;;;;;;5.97;2.17;;;;;;;29.08;40.22;101857.06;5115505;28;20031;-44
2022/08/01 11:14:32;;;;;;;4.38;1.35;;;;;;;29.10;40.28;101860.59;5106873;28;20042;-44
2022/08/01 11:17:38;;;;;;;2.83;1.23;;;;;;;29.14;40.29;101856.19;5116002;28;20019;-46
2022/08/01 11:20:13;;;;;;;3.03;1.33;;;;;;;29.14;39.68;101854.41;5113578;28;20497;-45
2022/08/01 11:23:01;;;;;;;2.92;0.90;;;;;;;29.07;39.85;101847.34;5115547;28;20019;-47
2022/08/01 11:25:41;;;;;;;1.48;1.00;;;;;;;29.07;39.81;101860.56;5115461;28;20066;-53
2022/08/01 11:28:20;;;;;;;5.60;1.10;;;;;;;29.06;39.89;101853.50;5115538;28;20031;-48
2022/08/01 11:30:52;;;;;;;2.38;1.00;;;;;;;29.06;39.75;101851.75;5115122;28;20034;-48
2022/08/01 11:33:41;;;;;;;3.13;0.82;;;;;;;28.96;40.05;101856.09;5115045;28;20066;-48
2022/08/01 11:36:12;;;;;;;1.15;0.90;;;;;;;29.09;39.73;101859.69;5096327;28;20024;-47
2022/08/01 11:38:42;;;;;;;1.92;1.23;;;;;;;29.10;39.55;101853.53;5115063;28;20020;-45
2022/08/01 11:41:16;;;;;;;1.73;0.80;;;;;;;29.12;39.62;101853.56;5114847;28;20042;-45